LOT242N EPWA-EPWR
Flight info
| Callsign | LOT242N |
|---|---|
| Flight time | 0h 53m |
| Altitude | 20000 |
| Route | SOXER DCT VAMPU DCT BAXIS DCT UVIVI |
| Aircraft | B738/M-SDE2E3FGHIRWXY/LB1 |
Departure
| Time | 2026-04-30 18:51 |
|---|---|
| Airport | Warsaw Chopin Airport (EPWA) |
Arrival
| Time | 2026-04-30 19:44 |
|---|---|
| Airport | Copernicus Wrocław Airport (EPWR) |
| Time | Latitude | Longitude | Altitude | Speed | Heading |
|---|---|---|---|---|---|
| 2026-04-30 18:16 | 52.17048 | 20.97105 | 338 ft | 0 kts | 77° |
| 2026-04-30 18:23 | 52.17046 | 20.97093 | 338 ft | 2 kts | 81° |
| 2026-04-30 18:23 | 52.17044 | 20.97070 | 337 ft | 2 kts | 76° |
| 2026-04-30 18:23 | 52.17040 | 20.97045 | 336 ft | 2 kts | 77° |
| 2026-04-30 18:23 | 52.17036 | 20.97021 | 335 ft | 2 kts | 58° |
| 2026-04-30 18:24 | 52.17025 | 20.96977 | 333 ft | 2 kts | 104° |
| 2026-04-30 18:24 | 52.17032 | 20.96957 | 333 ft | 2 kts | 137° |
| 2026-04-30 18:24 | 52.17043 | 20.96946 | 333 ft | 2 kts | 158° |
| 2026-04-30 18:25 | 52.17047 | 20.96943 | 333 ft | 1 kts | 154° |
| 2026-04-30 18:25 | 52.17049 | 20.96941 | 333 ft | 0 kts | 152° |
| 2026-04-30 18:32 | 52.17030 | 20.96963 | 333 ft | 7 kts | 124° |
| 2026-04-30 18:33 | 52.17031 | 20.96999 | 334 ft | 4 kts | 69° |
| 2026-04-30 18:33 | 52.17036 | 20.97021 | 335 ft | 5 kts | 75° |
| 2026-04-30 18:33 | 52.17042 | 20.97061 | 336 ft | 4 kts | 77° |
| 2026-04-30 18:34 | 52.17044 | 20.97073 | 337 ft | 0 kts | 77° |
| 2026-04-30 18:34 | 52.17048 | 20.97103 | 338 ft | 0 kts | 77° |
| 2026-04-30 18:45 | 52.17044 | 20.96945 | 333 ft | 0 kts | 151° |
| 2026-04-30 18:46 | 52.17038 | 20.96950 | 333 ft | 2 kts | 150° |
| 2026-04-30 18:46 | 52.16990 | 20.96993 | 333 ft | 10 kts | 151° |
| 2026-04-30 18:46 | 52.16925 | 20.97050 | 334 ft | 12 kts | 152° |
| 2026-04-30 18:47 | 52.16835 | 20.97129 | 336 ft | 17 kts | 152° |
| 2026-04-30 18:47 | 52.16716 | 20.97231 | 336 ft | 18 kts | 153° |
| 2026-04-30 18:47 | 52.16617 | 20.97312 | 336 ft | 13 kts | 152° |
| 2026-04-30 18:47 | 52.16564 | 20.97406 | 336 ft | 9 kts | 113° |
| 2026-04-30 18:48 | 52.16539 | 20.97497 | 337 ft | 9 kts | 114° |
| 2026-04-30 18:48 | 52.16495 | 20.97649 | 336 ft | 21 kts | 115° |
| 2026-04-30 18:48 | 52.16452 | 20.97791 | 335 ft | 0 kts | 141° |
| 2026-04-30 18:48 | 52.16434 | 20.97805 | 335 ft | 6 kts | 165° |
| 2026-04-30 18:49 | 52.16396 | 20.97793 | 334 ft | 4 kts | 203° |
| 2026-04-30 18:49 | 52.16376 | 20.97778 | 334 ft | 1 kts | 204° |
| 2026-04-30 18:49 | 52.16349 | 20.97757 | 333 ft | 11 kts | 206° |
| 2026-04-30 18:49 | 52.16308 | 20.97681 | 333 ft | 7 kts | 276° |
| 2026-04-30 18:50 | 52.16318 | 20.97627 | 334 ft | 1 kts | 293° |
| 2026-04-30 18:50 | 52.16318 | 20.97625 | 334 ft | 0 kts | 294° |
| 2026-04-30 18:51 | 52.16320 | 20.97620 | 334 ft | 4 kts | 294° |
| 2026-04-30 18:51 | 52.16466 | 20.97102 | 335 ft | 98 kts | 295° |
| 2026-04-30 18:51 | 52.16872 | 20.95652 | 425 ft | 171 kts | 295° |
| 2026-04-30 18:51 | 52.17371 | 20.93910 | 1356 ft | 174 kts | 295° |
| 2026-04-30 18:52 | 52.17882 | 20.92147 | 2297 ft | 179 kts | 295° |
| 2026-04-30 18:52 | 52.18270 | 20.90296 | 3230 ft | 181 kts | 274° |
| 2026-04-30 18:52 | 52.18070 | 20.88187 | 3946 ft | 195 kts | 260° |
| 2026-04-30 18:52 | 52.17984 | 20.86065 | 4893 ft | 197 kts | 269° |
| 2026-04-30 18:53 | 52.17918 | 20.83463 | 4827 ft | 261 kts | 262° |
| 2026-04-30 18:53 | 52.17521 | 20.80691 | 5949 ft | 268 kts | 257° |
| 2026-04-30 18:53 | 52.17086 | 20.77723 | 7216 ft | 273 kts | 257° |
| 2026-04-30 18:53 | 52.16640 | 20.74695 | 8422 ft | 279 kts | 257° |
| 2026-04-30 18:54 | 52.16194 | 20.71666 | 9557 ft | 284 kts | 257° |
| 2026-04-30 18:54 | 52.15723 | 20.68475 | 10224 ft | 308 kts | 257° |
| 2026-04-30 18:54 | 52.15194 | 20.64895 | 10670 ft | 337 kts | 257° |
| 2026-04-30 18:54 | 52.14653 | 20.61245 | 11915 ft | 338 kts | 257° |
| 2026-04-30 18:55 | 52.14095 | 20.57490 | 12946 ft | 345 kts | 257° |
| 2026-04-30 18:55 | 52.13518 | 20.53616 | 13977 ft | 352 kts | 257° |
| 2026-04-30 18:56 | 52.13398 | 20.52811 | 14192 ft | 353 kts | 257° |
| 2026-04-30 18:56 | 52.13124 | 20.50976 | 14691 ft | 354 kts | 257° |
| 2026-04-30 18:56 | 52.12527 | 20.46981 | 15666 ft | 360 kts | 257° |
| 2026-04-30 18:57 | 52.11678 | 20.41320 | 16991 ft | 367 kts | 257° |
| 2026-04-30 18:57 | 52.11073 | 20.37300 | 17879 ft | 372 kts | 257° |
| 2026-04-30 18:57 | 52.10467 | 20.33282 | 18718 ft | 377 kts | 256° |
| 2026-04-30 18:58 | 52.09192 | 20.24859 | 19643 ft | 399 kts | 256° |
| 2026-04-30 18:58 | 52.08526 | 20.20484 | 19609 ft | 399 kts | 256° |
| 2026-04-30 18:58 | 52.07863 | 20.16132 | 19612 ft | 396 kts | 256° |
| 2026-04-30 18:59 | 52.06644 | 20.08165 | 19615 ft | 395 kts | 256° |
| 2026-04-30 19:00 | 52.04608 | 19.95225 | 19597 ft | 395 kts | 250° |
| 2026-04-30 19:00 | 52.03390 | 19.91267 | 19657 ft | 394 kts | 240° |
| 2026-04-30 19:00 | 52.00557 | 19.83702 | 19622 ft | 395 kts | 238° |
| 2026-04-30 19:01 | 51.97669 | 19.76282 | 19614 ft | 395 kts | 238° |
| 2026-04-30 19:01 | 51.96204 | 19.72537 | 19616 ft | 395 kts | 238° |
| 2026-04-30 19:02 | 51.93261 | 19.65037 | 19615 ft | 395 kts | 238° |
| 2026-04-30 19:02 | 51.90315 | 19.57550 | 19615 ft | 395 kts | 238° |
| 2026-04-30 19:03 | 51.87391 | 19.50145 | 19615 ft | 395 kts | 238° |
| 2026-04-30 19:03 | 51.84429 | 19.42663 | 19615 ft | 395 kts | 238° |
| 2026-04-30 19:04 | 51.81467 | 19.35203 | 19615 ft | 395 kts | 238° |
| 2026-04-30 19:04 | 51.78514 | 19.27785 | 19615 ft | 395 kts | 237° |
| 2026-04-30 19:05 | 51.75557 | 19.20380 | 19615 ft | 395 kts | 237° |
| 2026-04-30 19:05 | 51.72583 | 19.12954 | 19615 ft | 395 kts | 237° |
| 2026-04-30 19:06 | 51.69589 | 19.05498 | 19615 ft | 395 kts | 237° |
| 2026-04-30 19:06 | 51.68093 | 19.01781 | 19615 ft | 395 kts | 237° |
| 2026-04-30 19:06 | 51.65122 | 18.94417 | 19615 ft | 395 kts | 237° |
| 2026-04-30 19:07 | 51.62134 | 18.87031 | 19615 ft | 395 kts | 237° |
| 2026-04-30 19:07 | 51.60635 | 18.83333 | 19615 ft | 395 kts | 237° |
| 2026-04-30 19:08 | 51.57654 | 18.75996 | 19553 ft | 390 kts | 237° |
| 2026-04-30 19:08 | 51.54707 | 18.68763 | 18206 ft | 386 kts | 237° |
| 2026-04-30 19:08 | 51.53231 | 18.65148 | 17548 ft | 383 kts | 237° |
| 2026-04-30 19:09 | 51.50349 | 18.58102 | 16348 ft | 375 kts | 237° |
| 2026-04-30 19:09 | 51.48933 | 18.54649 | 15864 ft | 370 kts | 237° |
| 2026-04-30 19:09 | 51.47536 | 18.51247 | 15661 ft | 362 kts | 237° |
| 2026-04-30 19:10 | 51.44790 | 18.44569 | 15252 ft | 357 kts | 237° |
| 2026-04-30 19:10 | 51.42059 | 18.37946 | 14835 ft | 356 kts | 237° |
| 2026-04-30 19:11 | 51.40711 | 18.34685 | 14620 ft | 355 kts | 236° |
| 2026-04-30 19:11 | 51.37984 | 18.28096 | 14166 ft | 351 kts | 236° |
| 2026-04-30 19:11 | 51.36660 | 18.24905 | 13893 ft | 341 kts | 236° |
| 2026-04-30 19:12 | 51.35379 | 18.21818 | 13602 ft | 332 kts | 236° |
| 2026-04-30 19:12 | 51.34117 | 18.18783 | 13306 ft | 327 kts | 236° |
| 2026-04-30 19:12 | 51.32858 | 18.15758 | 13051 ft | 326 kts | 236° |
| 2026-04-30 19:13 | 51.30352 | 18.09747 | 12603 ft | 327 kts | 236° |
| 2026-04-30 19:13 | 51.27829 | 18.03710 | 12140 ft | 325 kts | 236° |
| 2026-04-30 19:13 | 51.26582 | 18.00731 | 11903 ft | 324 kts | 236° |
| 2026-04-30 19:14 | 51.25335 | 17.97757 | 11663 ft | 322 kts | 236° |
| 2026-04-30 19:14 | 51.24093 | 17.94796 | 11418 ft | 321 kts | 236° |
| 2026-04-30 19:14 | 51.22852 | 17.91841 | 11168 ft | 320 kts | 236° |
| 2026-04-30 19:14 | 51.21623 | 17.88919 | 10916 ft | 319 kts | 236° |
| 2026-04-30 19:15 | 51.20401 | 17.86018 | 10626 ft | 312 kts | 236° |
| 2026-04-30 19:15 | 51.18028 | 17.80390 | 10013 ft | 300 kts | 236° |
| 2026-04-30 19:15 | 51.16886 | 17.77685 | 9727 ft | 295 kts | 236° |
| 2026-04-30 19:16 | 51.15750 | 17.74999 | 9434 ft | 290 kts | 236° |
| 2026-04-30 19:16 | 51.14632 | 17.72357 | 9157 ft | 285 kts | 236° |
| 2026-04-30 19:16 | 51.12460 | 17.67233 | 8618 ft | 276 kts | 236° |
| 2026-04-30 19:17 | 51.11395 | 17.64723 | 8353 ft | 272 kts | 236° |
| 2026-04-30 19:17 | 51.09311 | 17.59821 | 7850 ft | 265 kts | 236° |
| 2026-04-30 19:17 | 51.08279 | 17.57400 | 7610 ft | 264 kts | 236° |
| 2026-04-30 19:18 | 51.06914 | 17.54197 | 7317 ft | 264 kts | 236° |
| 2026-04-30 19:18 | 51.05214 | 17.50213 | 6993 ft | 262 kts | 236° |
| 2026-04-30 19:18 | 51.04194 | 17.47825 | 6755 ft | 262 kts | 236° |
| 2026-04-30 19:19 | 51.03168 | 17.45426 | 6503 ft | 261 kts | 236° |
| 2026-04-30 19:19 | 51.02158 | 17.43066 | 6250 ft | 260 kts | 236° |
| 2026-04-30 19:19 | 51.00125 | 17.38323 | 5723 ft | 258 kts | 236° |
| 2026-04-30 19:20 | 50.99123 | 17.35989 | 5454 ft | 256 kts | 236° |
| 2026-04-30 19:20 | 50.98164 | 17.33737 | 5120 ft | 238 kts | 239° |
| 2026-04-30 19:20 | 50.97844 | 17.29001 | 4532 ft | 204 kts | 294° |
| 2026-04-30 19:21 | 50.98408 | 17.27093 | 4597 ft | 188 kts | 295° |
| 2026-04-30 19:21 | 50.99553 | 17.23279 | 4601 ft | 195 kts | 296° |
| 2026-04-30 19:22 | 51.00732 | 17.19480 | 4438 ft | 194 kts | 296° |
| 2026-04-30 19:22 | 51.02347 | 17.14275 | 3693 ft | 161 kts | 296° |
| 2026-04-30 19:23 | 51.03759 | 17.09720 | 3108 ft | 155 kts | 296° |
| 2026-04-30 19:24 | 51.04720 | 17.06613 | 2731 ft | 158 kts | 296° |
| 2026-04-30 19:24 | 51.05196 | 17.05072 | 2512 ft | 153 kts | 296° |
| 2026-04-30 19:24 | 51.06047 | 17.02317 | 2100 ft | 140 kts | 296° |
| 2026-04-30 19:25 | 51.07342 | 16.98113 | 1564 ft | 142 kts | 296° |
| 2026-04-30 19:26 | 51.08208 | 16.95298 | 1184 ft | 141 kts | 296° |
| 2026-04-30 19:26 | 51.09072 | 16.92512 | 815 ft | 141 kts | 296° |
| 2026-04-30 19:26 | 51.09506 | 16.91120 | 639 ft | 139 kts | 296° |
| 2026-04-30 19:27 | 51.10312 | 16.88448 | 440 ft | 139 kts | 296° |
| 2026-04-30 19:27 | 51.11202 | 16.85386 | 1698 ft | 183 kts | 294° |
| 2026-04-30 19:28 | 51.11794 | 16.83301 | 2249 ft | 227 kts | 294° |
| 2026-04-30 19:28 | 51.13257 | 16.78146 | 2793 ft | 271 kts | 294° |
| 2026-04-30 19:29 | 51.14756 | 16.72850 | 3554 ft | 263 kts | 294° |
| 2026-04-30 19:29 | 51.15496 | 16.70235 | 3568 ft | 260 kts | 294° |
| 2026-04-30 19:30 | 51.17299 | 16.62192 | 3523 ft | 260 kts | 264° |
| 2026-04-30 19:30 | 51.15389 | 16.57625 | 3578 ft | 261 kts | 208° |
| 2026-04-30 19:31 | 51.11865 | 16.57477 | 3615 ft | 260 kts | 165° |
| 2026-04-30 19:31 | 51.10128 | 16.58229 | 3586 ft | 261 kts | 165° |
| 2026-04-30 19:31 | 51.06624 | 16.59761 | 3588 ft | 260 kts | 165° |
| 2026-04-30 19:32 | 51.04903 | 16.60515 | 3587 ft | 260 kts | 164° |
| 2026-04-30 19:32 | 51.03337 | 16.61951 | 3576 ft | 259 kts | 134° |
| 2026-04-30 19:32 | 51.02385 | 16.64350 | 3602 ft | 260 kts | 115° |
| 2026-04-30 19:32 | 51.01638 | 16.66913 | 3586 ft | 262 kts | 115° |
| 2026-04-30 19:33 | 51.00887 | 16.69510 | 3590 ft | 261 kts | 115° |
| 2026-04-30 19:33 | 51.00130 | 16.72131 | 3588 ft | 260 kts | 115° |
| 2026-04-30 19:33 | 50.99377 | 16.74734 | 3588 ft | 260 kts | 115° |
| 2026-04-30 19:33 | 50.98616 | 16.77366 | 3588 ft | 260 kts | 115° |
| 2026-04-30 19:34 | 50.97861 | 16.79974 | 3588 ft | 260 kts | 115° |
| 2026-04-30 19:34 | 50.97101 | 16.82598 | 3588 ft | 260 kts | 115° |
| 2026-04-30 19:34 | 50.95591 | 16.87809 | 3588 ft | 260 kts | 115° |
| 2026-04-30 19:35 | 50.94837 | 16.90410 | 3588 ft | 260 kts | 115° |
| 2026-04-30 19:35 | 50.94086 | 16.93000 | 3588 ft | 260 kts | 115° |
| 2026-04-30 19:35 | 50.93333 | 16.95595 | 3588 ft | 260 kts | 115° |
| 2026-04-30 19:35 | 50.92575 | 16.98206 | 3588 ft | 260 kts | 115° |
| 2026-04-30 19:36 | 50.91829 | 17.00774 | 3570 ft | 249 kts | 115° |
| 2026-04-30 19:36 | 50.91119 | 17.03219 | 3570 ft | 236 kts | 115° |
| 2026-04-30 19:36 | 50.89806 | 17.07734 | 3591 ft | 226 kts | 115° |
| 2026-04-30 19:37 | 50.89143 | 17.10014 | 3590 ft | 229 kts | 115° |
| 2026-04-30 19:37 | 50.88478 | 17.12300 | 3522 ft | 226 kts | 115° |
| 2026-04-30 19:37 | 50.87976 | 17.14654 | 3074 ft | 230 kts | 94° |
| 2026-04-30 19:37 | 50.88302 | 17.17045 | 2787 ft | 227 kts | 61° |
| 2026-04-30 19:38 | 50.89415 | 17.18807 | 2601 ft | 227 kts | 28° |
| 2026-04-30 19:38 | 50.90829 | 17.19880 | 2602 ft | 227 kts | 25° |
| 2026-04-30 19:38 | 50.92240 | 17.20925 | 2597 ft | 226 kts | 25° |
| 2026-04-30 19:38 | 50.93750 | 17.21428 | 2570 ft | 225 kts | 354° |
| 2026-04-30 19:39 | 50.95205 | 17.20528 | 2600 ft | 226 kts | 326° |
| 2026-04-30 19:39 | 50.96492 | 17.19119 | 2592 ft | 227 kts | 325° |
| 2026-04-30 19:39 | 50.97789 | 17.17683 | 2589 ft | 226 kts | 325° |
| 2026-04-30 19:39 | 50.99073 | 17.16260 | 2592 ft | 226 kts | 325° |
| 2026-04-30 19:40 | 51.00346 | 17.14850 | 2592 ft | 226 kts | 325° |
| 2026-04-30 19:40 | 51.01650 | 17.13404 | 2588 ft | 226 kts | 325° |
| 2026-04-30 19:40 | 51.02911 | 17.11927 | 2573 ft | 226 kts | 315° |
| 2026-04-30 19:40 | 51.03715 | 17.09849 | 2617 ft | 224 kts | 296° |
| 2026-04-30 19:41 | 51.04411 | 17.07589 | 2585 ft | 226 kts | 296° |
| 2026-04-30 19:41 | 51.05086 | 17.05397 | 2519 ft | 220 kts | 296° |
| 2026-04-30 19:41 | 51.05729 | 17.03314 | 2316 ft | 200 kts | 296° |
| 2026-04-30 19:41 | 51.06315 | 17.01418 | 2024 ft | 185 kts | 296° |
| 2026-04-30 19:42 | 51.06853 | 16.99677 | 1749 ft | 172 kts | 296° |
| 2026-04-30 19:42 | 51.07351 | 16.98063 | 1482 ft | 155 kts | 296° |
| 2026-04-30 19:42 | 51.07798 | 16.96614 | 1290 ft | 139 kts | 296° |
| 2026-04-30 19:42 | 51.08219 | 16.95249 | 1124 ft | 137 kts | 296° |
| 2026-04-30 19:43 | 51.08641 | 16.93887 | 974 ft | 139 kts | 297° |
| 2026-04-30 19:43 | 51.09080 | 16.92510 | 822 ft | 135 kts | 295° |
| 2026-04-30 19:43 | 51.09472 | 16.91174 | 647 ft | 130 kts | 295° |
| 2026-04-30 19:44 | 51.10219 | 16.88727 | 397 ft | 99 kts | 297° |
| 2026-04-30 19:44 | 51.10436 | 16.88015 | 402 ft | 52 kts | 296° |
| 2026-04-30 19:44 | 51.10601 | 16.87492 | 403 ft | 54 kts | 295° |
| 2026-04-30 19:44 | 51.10697 | 16.87240 | 405 ft | 0 kts | 11° |
| 2026-04-30 19:45 | 51.10769 | 16.87283 | 403 ft | 19 kts | 27° |
| 2026-04-30 19:45 | 51.10882 | 16.87372 | 402 ft | 16 kts | 26° |
| 2026-04-30 19:45 | 51.10946 | 16.87476 | 400 ft | 13 kts | 104° |
| 2026-04-30 19:45 | 51.10913 | 16.87594 | 400 ft | 12 kts | 116° |
| 2026-04-30 19:46 | 51.10868 | 16.87740 | 400 ft | 16 kts | 116° |
| 2026-04-30 19:46 | 51.10822 | 16.87888 | 399 ft | 12 kts | 116° |
| 2026-04-30 19:46 | 51.10787 | 16.88003 | 399 ft | 11 kts | 116° |
| 2026-04-30 19:46 | 51.10761 | 16.88095 | 399 ft | 4 kts | 86° |
| 2026-04-30 19:47 | 51.10795 | 16.88129 | 399 ft | 8 kts | 27° |
| 2026-04-30 19:47 | 51.10819 | 16.88148 | 399 ft | 1 kts | 26° |
| 2026-04-30 19:47 | 51.10819 | 16.88149 | 399 ft | 0 kts | 26° |